createdAt,value
2019-03-20T00:01:31.049Z,17.76
2019-03-20T00:04:02.765Z,17.78
2019-03-20T00:06:34.355Z,17.78
2019-03-20T00:09:08.317Z,17.77
2019-03-20T00:11:39.766Z,17.72
2019-03-20T00:14:11.719Z,17.75
2019-03-20T00:16:42.462Z,17.72
2019-03-20T00:19:14.073Z,17.71
2019-03-20T00:21:45.789Z,17.68
2019-03-20T00:24:16.492Z,17.69
2019-03-20T00:26:48.308Z,17.62
2019-03-20T00:29:20.296Z,17.62
2019-03-20T00:31:52.417Z,17.56
2019-03-20T00:34:24.065Z,17.51
2019-03-20T00:36:55.738Z,17.53
2019-03-20T00:39:27.784Z,17.54
2019-03-20T00:41:58.490Z,17.51
2019-03-20T00:44:30.262Z,17.54
2019-03-20T00:47:01.800Z,17.52
2019-03-20T00:49:32.556Z,17.57
2019-03-20T00:52:04.328Z,17.62
2019-03-20T00:54:35.917Z,17.62
2019-03-20T00:57:07.748Z,17.61
2019-03-20T00:59:38.507Z,17.59
2019-03-20T01:02:10.737Z,17.64
2019-03-20T01:04:41.506Z,17.67
2019-03-20T01:07:13.313Z,17.64
2019-03-20T01:09:44.833Z,17.59
2019-03-20T01:12:17.752Z,17.60
2019-03-20T01:14:49.760Z,17.63
2019-03-20T01:17:20.789Z,17.65
2019-03-20T01:19:52.637Z,17.60
2019-03-20T01:22:24.343Z,17.55
2019-03-20T01:24:56.000Z,17.55
2019-03-20T01:27:27.782Z,17.57
2019-03-20T01:29:59.764Z,17.61
2019-03-20T01:32:31.429Z,17.60
2019-03-20T01:35:03.608Z,17.57
2019-03-20T01:37:35.438Z,17.55
2019-03-20T01:40:07.439Z,17.57
2019-03-20T01:42:39.080Z,17.57
2019-03-20T01:45:11.697Z,17.58
2019-03-20T01:47:43.829Z,17.49
2019-03-20T01:50:15.510Z,17.57
2019-03-20T01:52:47.075Z,17.55
2019-03-20T01:55:18.772Z,17.57
2019-03-20T01:57:49.619Z,17.57
2019-03-20T02:00:21.359Z,17.47
2019-03-20T02:02:53.404Z,17.47
2019-03-20T02:05:35.210Z,17.50
2019-03-20T02:07:58.601Z,17.50
2019-03-20T02:10:30.338Z,17.46
2019-03-20T02:13:02.317Z,17.46
2019-03-20T02:15:39.118Z,17.49
2019-03-20T02:18:08.757Z,17.46
2019-03-20T02:20:39.482Z,17.44
2019-03-20T02:23:11.074Z,17.45
2019-03-20T02:25:42.789Z,17.38
2019-03-20T02:28:13.783Z,17.38
2019-03-20T02:30:45.394Z,17.41
2019-03-20T02:33:17.075Z,17.44
2019-03-20T02:35:51.935Z,17.50
2019-03-20T02:38:23.336Z,17.49
2019-03-20T02:40:55.053Z,17.42
2019-03-20T02:43:26.765Z,17.40
2019-03-20T02:45:58.754Z,17.39
2019-03-20T02:48:29.939Z,17.35
2019-03-20T02:51:01.817Z,17.30
2019-03-20T02:53:33.773Z,17.27
2019-03-20T02:56:05.681Z,17.31
2019-03-20T02:58:36.759Z,17.27
2019-03-20T03:01:07.627Z,17.21
2019-03-20T03:03:39.334Z,17.27
2019-03-20T03:06:11.063Z,17.27
2019-03-20T03:08:42.756Z,17.29
2019-03-20T03:11:13.597Z,17.31
2019-03-20T03:13:45.343Z,17.30
2019-03-20T03:16:17.064Z,17.30
2019-03-20T03:18:48.742Z,17.32
2019-03-20T03:21:19.443Z,17.28
2019-03-20T03:23:51.074Z,17.24
2019-03-20T03:26:22.784Z,17.34
2019-03-20T03:28:53.477Z,17.28
2019-03-20T03:31:25.041Z,17.28
2019-03-20T03:33:57.039Z,17.26
2019-03-20T03:36:28.757Z,17.20
2019-03-20T03:38:59.456Z,17.22
2019-03-20T03:41:31.320Z,17.25
2019-03-20T03:44:03.354Z,17.24
2019-03-20T03:46:35.001Z,17.24
2019-03-20T03:49:06.755Z,17.27
2019-03-20T03:51:38.388Z,17.31
2019-03-20T03:54:10.761Z,17.25
2019-03-20T03:56:41.465Z,17.22
2019-03-20T03:59:13.782Z,17.25
2019-03-20T04:01:45.916Z,17.25
2019-03-20T04:04:17.593Z,17.17
2019-03-20T04:06:49.547Z,17.17
2019-03-20T04:09:21.785Z,17.17
2019-03-20T04:11:53.807Z,17.13
2019-03-20T04:14:25.383Z,17.12
2019-03-20T04:16:58.306Z,17.13
2019-03-20T04:19:29.907Z,17.14
2019-03-20T04:22:01.747Z,17.16
2019-03-20T04:24:33.370Z,17.11
2019-03-20T04:27:05.053Z,17.11
2019-03-20T04:29:36.850Z,17.09
2019-03-20T04:32:08.485Z,17.11
2019-03-20T04:34:40.301Z,17.13
2019-03-20T04:37:12.062Z,17.16
2019-03-20T04:39:43.790Z,17.14
2019-03-20T04:42:14.515Z,17.14
2019-03-20T04:44:46.310Z,17.18
2019-03-20T04:47:17.878Z,17.18
2019-03-20T04:49:49.377Z,17.12
2019-03-20T04:52:21.440Z,17.13
2019-03-20T04:54:53.069Z,17.14
2019-03-20T04:57:24.833Z,17.13
2019-03-20T04:59:56.609Z,17.00
2019-03-20T05:02:28.724Z,16.87
2019-03-20T05:04:59.876Z,16.87
2019-03-20T05:07:31.769Z,16.81
2019-03-20T05:10:02.451Z,16.74
2019-03-20T05:12:35.309Z,16.83
2019-03-20T05:15:07.701Z,16.83
2019-03-20T05:17:38.457Z,16.77
2019-03-20T05:20:12.775Z,16.81
2019-03-20T05:22:44.375Z,16.68
2019-03-20T05:25:15.996Z,16.71
2019-03-20T05:27:47.740Z,16.69
2019-03-20T05:30:18.485Z,16.71
2019-03-20T05:32:50.272Z,16.71
2019-03-20T05:35:21.845Z,16.75
2019-03-20T05:37:53.753Z,16.82
2019-03-20T05:40:24.466Z,16.87
2019-03-20T05:42:56.066Z,16.82
2019-03-20T05:45:27.761Z,16.87
2019-03-20T05:47:58.473Z,16.84
2019-03-20T05:50:30.326Z,16.77
2019-03-20T05:53:05.231Z,16.71
2019-03-20T05:55:36.788Z,16.73
2019-03-20T05:58:08.753Z,16.68
2019-03-20T06:00:39.477Z,16.71
2019-03-20T06:03:11.313Z,16.71
2019-03-20T06:05:42.838Z,16.88
2019-03-20T06:08:14.632Z,16.90
2019-03-20T06:10:46.369Z,16.76
2019-03-20T06:13:18.366Z,16.76
2019-03-20T06:15:50.305Z,16.70
2019-03-20T06:18:22.748Z,16.69
2019-03-20T06:20:53.967Z,16.67
2019-03-20T06:23:26.265Z,16.69
2019-03-20T06:25:57.791Z,16.63
2019-03-20T06:28:29.780Z,16.60
2019-03-20T06:31:01.786Z,16.67
2019-03-20T06:33:33.284Z,16.70
2019-03-20T06:36:05.305Z,16.67
2019-03-20T06:38:36.858Z,16.66
2019-03-20T06:41:08.383Z,16.64
2019-03-20T06:43:40.056Z,16.65
2019-03-20T06:46:11.772Z,16.69
2019-03-20T06:48:42.504Z,16.71
2019-03-20T06:51:14.304Z,16.75
2019-03-20T06:53:45.828Z,16.76
2019-03-20T06:56:17.742Z,16.72
2019-03-20T06:58:48.475Z,16.76
2019-03-20T07:01:30.353Z,16.72
2019-03-20T07:05:05.264Z,16.73
2019-03-20T07:07:44.291Z,16.79
2019-03-20T07:10:55.318Z,16.74
2019-03-20T07:13:27.485Z,16.77
2019-03-20T07:15:59.557Z,16.71
2019-03-20T07:18:31.292Z,16.75
2019-03-20T07:21:02.890Z,16.75
2019-03-20T07:23:34.361Z,16.70
2019-03-20T07:26:06.287Z,16.72
2019-03-20T07:28:37.851Z,16.83
2019-03-20T07:31:15.104Z,16.99
2019-03-20T07:33:43.753Z,17.06
2019-03-20T07:36:14.559Z,17.08
2019-03-20T07:38:46.728Z,17.12
2019-03-20T07:41:17.846Z,17.12
2019-03-20T07:43:49.759Z,17.13
2019-03-20T07:46:21.395Z,17.18
2019-03-20T07:48:52.769Z,17.23
2019-03-20T07:51:24.583Z,17.35
2019-03-20T07:53:56.632Z,17.10
2019-03-20T07:56:28.564Z,17.16
2019-03-20T07:58:59.606Z,17.16
2019-03-20T08:01:31.330Z,17.34
2019-03-20T08:04:03.615Z,17.34
2019-03-20T08:06:34.478Z,17.33
2019-03-20T08:09:08.297Z,17.35
2019-03-20T08:11:39.863Z,17.32
2019-03-20T08:14:11.802Z,17.39
2019-03-20T08:16:43.466Z,17.43
2019-03-20T08:19:15.061Z,17.49
2019-03-20T08:21:47.604Z,17.48
2019-03-20T08:24:19.369Z,17.49
2019-03-20T08:26:51.036Z,17.49
2019-03-20T08:29:23.303Z,17.52
2019-03-20T08:31:54.873Z,17.48
2019-03-20T08:34:29.385Z,17.50
2019-03-20T08:37:02.530Z,17.54
2019-03-20T08:39:35.270Z,17.52
2019-03-20T08:42:07.779Z,17.57
2019-03-20T08:44:38.648Z,17.62
2019-03-20T08:47:10.768Z,17.67
2019-03-20T08:49:41.844Z,17.67
2019-03-20T08:52:14.298Z,17.66
2019-03-20T08:54:46.695Z,17.71
2019-03-20T08:57:17.333Z,17.74
2019-03-20T08:59:49.346Z,17.74
2019-03-20T09:02:21.497Z,17.74
2019-03-20T09:04:53.647Z,17.74
2019-03-20T09:07:25.784Z,17.86
2019-03-20T09:09:58.298Z,17.86
2019-03-20T09:12:30.412Z,17.93
2019-03-20T09:15:02.830Z,18.03
2019-03-20T09:17:34.817Z,18.00
2019-03-20T09:20:07.308Z,18.00
2019-03-20T09:22:39.301Z,18.08
2019-03-20T09:25:14.667Z,18.08
2019-03-20T09:27:46.795Z,18.14
2019-03-20T09:30:21.798Z,18.14
2019-03-20T09:32:54.306Z,18.15
2019-03-20T09:35:26.475Z,18.17
2019-03-20T09:37:58.840Z,18.20
2019-03-20T09:40:30.789Z,18.20
2019-03-20T09:43:01.656Z,18.18
2019-03-20T09:45:33.803Z,18.23
2019-03-20T09:48:05.796Z,18.25
2019-03-20T09:50:37.800Z,18.29
2019-03-20T09:53:09.765Z,18.34
2019-03-20T09:55:41.807Z,18.31
2019-03-20T09:58:13.803Z,18.33
2019-03-20T10:00:45.815Z,18.35
2019-03-20T10:03:17.843Z,18.35
2019-03-20T10:05:49.808Z,18.39
2019-03-20T10:08:21.770Z,18.34
2019-03-20T10:10:52.666Z,18.35
2019-03-20T10:13:24.794Z,18.35
2019-03-20T10:15:56.807Z,18.35
2019-03-20T10:18:28.838Z,18.35
2019-03-20T10:21:00.777Z,18.39
2019-03-20T10:23:31.951Z,18.35
2019-03-20T10:26:03.808Z,18.41
2019-03-20T10:28:35.777Z,18.40
2019-03-20T10:31:06.674Z,18.40
2019-03-20T10:33:37.676Z,18.42
2019-03-20T10:36:08.637Z,18.47
2019-03-20T10:38:40.304Z,18.41
2019-03-20T10:41:11.631Z,18.37
2019-03-20T10:43:44.274Z,18.43
2019-03-20T10:46:16.320Z,18.43
2019-03-20T10:48:48.434Z,18.45
2019-03-20T10:51:20.532Z,18.48
2019-03-20T10:53:52.835Z,18.36
2019-03-20T10:56:24.803Z,18.36
2019-03-20T10:58:56.892Z,18.48
2019-03-20T11:01:28.815Z,18.46
2019-03-20T11:04:00.828Z,18.47
2019-03-20T11:06:32.838Z,18.49
2019-03-20T11:09:05.378Z,18.45
2019-03-20T11:11:37.322Z,18.50
2019-03-20T11:14:09.798Z,18.50
2019-03-20T11:16:41.838Z,18.50
2019-03-20T11:19:13.838Z,18.47
2019-03-20T11:21:45.807Z,18.50
2019-03-20T11:24:17.775Z,18.52
2019-03-20T11:26:48.660Z,18.50
2019-03-20T11:29:21.817Z,18.46
2019-03-20T11:31:54.305Z,18.46
2019-03-20T11:34:26.302Z,18.50
2019-03-20T11:36:58.499Z,18.49
2019-03-20T11:39:30.831Z,18.47
2019-03-20T11:42:02.813Z,18.46
2019-03-20T11:44:34.853Z,18.50
2019-03-20T11:47:06.776Z,18.51
2019-03-20T11:49:37.648Z,18.53
2019-03-20T11:52:09.851Z,18.50
2019-03-20T11:54:41.852Z,18.50
2019-03-20T11:57:13.877Z,18.43
2019-03-20T11:59:46.319Z,18.48
2019-03-20T12:02:27.759Z,18.54
2019-03-20T12:04:53.898Z,18.56
2019-03-20T12:07:25.091Z,18.49
2019-03-20T12:09:56.975Z,18.50
2019-03-20T12:12:28.836Z,18.47
2019-03-20T12:15:00.781Z,18.51
2019-03-20T12:17:31.714Z,18.61
2019-03-20T12:20:02.550Z,18.59
2019-03-20T12:22:34.781Z,18.62
2019-03-20T12:25:07.238Z,18.62
2019-03-20T12:27:39.301Z,18.62
2019-03-20T12:30:15.307Z,18.67
2019-03-20T12:32:47.313Z,18.64
2019-03-20T12:35:19.317Z,18.66
2019-03-20T12:37:51.283Z,18.69
2019-03-20T12:40:30.303Z,18.72
2019-03-20T12:43:02.339Z,18.70
2019-03-20T12:45:35.826Z,18.73
2019-03-20T12:48:07.858Z,18.77
2019-03-20T12:50:39.835Z,18.77
2019-03-20T12:53:12.641Z,18.81
2019-03-20T12:55:44.829Z,18.76
2019-03-20T12:58:16.801Z,18.76
2019-03-20T13:03:19.431Z,18.76
2019-03-20T13:05:51.340Z,18.75
2019-03-20T13:08:23.275Z,18.73
2019-03-20T13:10:55.319Z,18.79
2019-03-20T13:13:27.322Z,18.79
2019-03-20T13:15:59.859Z,18.82
2019-03-20T13:18:31.851Z,18.80
2019-03-20T13:21:03.799Z,18.81
2019-03-20T13:23:35.813Z,18.83
2019-03-20T13:26:07.821Z,18.80
2019-03-20T13:28:40.316Z,18.79
2019-03-20T13:31:20.425Z,18.83
2019-03-20T13:33:53.489Z,18.84
2019-03-20T13:36:25.839Z,18.83
2019-03-20T13:38:58.765Z,18.83
2019-03-20T13:41:29.647Z,18.89
2019-03-20T13:44:01.260Z,18.94
2019-03-20T13:46:32.644Z,18.96
2019-03-20T13:49:04.756Z,18.94
2019-03-20T13:51:35.347Z,18.93
2019-03-20T13:54:07.480Z,18.92
2019-03-20T13:56:40.894Z,18.96
2019-03-20T13:59:12.801Z,18.95
2019-03-20T14:01:43.673Z,18.92
2019-03-20T14:04:14.590Z,18.91
2019-03-20T14:06:46.785Z,18.94
2019-03-20T14:09:17.699Z,18.94
2019-03-20T14:11:48.693Z,18.94
2019-03-20T14:14:19.689Z,18.94
2019-03-20T14:16:50.665Z,18.94
2019-03-20T14:19:24.364Z,18.98
2019-03-20T14:21:55.690Z,18.98
2019-03-20T14:24:26.621Z,18.92
2019-03-20T14:27:01.263Z,18.91
2019-03-20T14:29:33.312Z,18.91
2019-03-20T14:32:05.323Z,18.98
2019-03-20T14:34:37.323Z,18.98
2019-03-20T14:37:09.301Z,18.98
2019-03-20T14:39:41.273Z,18.97
2019-03-20T14:42:13.320Z,18.97
2019-03-20T14:44:45.301Z,19.00
2019-03-20T14:47:17.311Z,19.01
2019-03-20T14:49:49.301Z,19.02
2019-03-20T14:52:21.504Z,19.00
2019-03-20T14:54:53.547Z,18.99
2019-03-20T14:57:25.793Z,18.99
2019-03-20T14:59:56.695Z,19.01
2019-03-20T15:02:27.618Z,18.99
2019-03-20T15:04:59.186Z,18.94
2019-03-20T15:07:30.439Z,19.39
2019-03-20T15:10:02.317Z,19.39
2019-03-20T15:12:34.307Z,19.64
2019-03-20T15:15:09.829Z,19.87
2019-03-20T15:17:41.803Z,20.01
2019-03-20T15:20:13.798Z,20.04
2019-03-20T15:22:45.743Z,20.19
2019-03-20T15:25:23.680Z,20.24
2019-03-20T15:27:55.795Z,20.17
2019-03-20T15:30:29.603Z,20.17
2019-03-20T15:33:01.795Z,20.18
2019-03-20T15:35:33.758Z,20.18
2019-03-20T15:38:04.645Z,20.11
2019-03-20T15:40:36.816Z,19.95
2019-03-20T15:43:08.832Z,19.95
2019-03-20T15:45:40.804Z,20.00
2019-03-20T15:48:12.790Z,19.96
2019-03-20T15:50:44.263Z,19.95
2019-03-20T15:53:16.310Z,19.92
2019-03-20T15:55:48.299Z,19.89
2019-03-20T15:58:20.312Z,19.89
2019-03-20T16:00:52.779Z,19.91
2019-03-20T16:03:26.300Z,19.99
2019-03-20T16:05:59.814Z,19.95
2019-03-20T16:08:31.821Z,19.95
2019-03-20T16:11:06.885Z,19.95
2019-03-20T16:13:37.650Z,19.98
2019-03-20T16:16:09.261Z,19.97
2019-03-20T16:18:40.604Z,19.94
2019-03-20T16:21:12.773Z,19.76
2019-03-20T16:23:43.874Z,19.76
2019-03-20T16:26:15.771Z,19.88
2019-03-20T16:28:46.653Z,20.04
2019-03-20T16:31:18.770Z,20.13
2019-03-20T16:33:49.732Z,20.13
2019-03-20T16:36:20.635Z,20.25
2019-03-20T16:38:54.340Z,20.21
2019-03-20T16:41:26.374Z,20.21
2019-03-20T16:43:58.584Z,20.22
2019-03-20T16:46:30.454Z,20.11
2019-03-20T16:49:02.416Z,20.11
2019-03-20T16:51:34.681Z,20.19
2019-03-20T16:54:06.788Z,20.19
2019-03-20T16:56:42.231Z,20.19
2019-03-20T16:59:13.889Z,20.12
2019-03-20T17:01:45.753Z,20.09
2019-03-20T17:04:16.465Z,20.05
2019-03-20T17:06:48.380Z,19.99
2019-03-20T17:09:23.292Z,19.98
2019-03-20T17:11:54.853Z,19.95
2019-03-20T17:14:26.668Z,19.95
2019-03-20T17:16:58.295Z,19.87
2019-03-20T17:19:30.055Z,19.87
2019-03-20T17:22:01.804Z,19.82
2019-03-20T17:24:33.751Z,19.76
2019-03-20T17:27:05.457Z,19.70
2019-03-20T17:29:37.295Z,19.62
2019-03-20T17:32:09.288Z,19.55
2019-03-20T17:34:40.809Z,19.49
2019-03-20T17:37:12.601Z,19.40
2019-03-20T17:39:44.305Z,19.11
2019-03-20T17:42:15.873Z,19.11
2019-03-20T17:44:47.368Z,19.15
2019-03-20T17:47:19.303Z,19.06
2019-03-20T17:49:50.876Z,19.12
2019-03-20T17:52:22.630Z,19.12
2019-03-20T17:54:54.808Z,19.73
2019-03-20T17:57:26.455Z,19.73
2019-03-20T17:59:58.063Z,19.92
2019-03-20T18:02:29.772Z,20.07
2019-03-20T18:05:02.387Z,20.23
2019-03-20T18:07:33.817Z,20.29
2019-03-20T18:10:06.312Z,20.38
2019-03-20T18:12:38.292Z,20.45
2019-03-20T18:15:12.293Z,20.46
2019-03-20T18:17:43.835Z,20.45
2019-03-20T18:20:16.291Z,20.41
2019-03-20T18:23:09.366Z,20.37
2019-03-20T18:25:41.317Z,20.33
2019-03-20T18:28:12.893Z,20.28
2019-03-20T18:30:44.792Z,20.28
2019-03-20T18:33:16.254Z,20.24
2019-03-20T18:35:48.017Z,20.20
2019-03-20T18:38:19.766Z,20.11
2019-03-20T18:40:53.249Z,20.04
2019-03-20T18:43:25.294Z,19.99
2019-03-20T18:45:56.893Z,19.96
2019-03-20T18:48:28.404Z,19.87
2019-03-20T18:51:00.299Z,19.82
2019-03-20T18:53:32.583Z,19.75
2019-03-20T18:56:04.387Z,19.49
2019-03-20T18:58:36.388Z,19.49
2019-03-20T19:01:10.001Z,19.49
2019-03-20T19:03:44.265Z,19.37
2019-03-20T19:06:23.288Z,19.30
2019-03-20T19:08:54.858Z,19.13
2019-03-20T19:11:26.726Z,19.00
2019-03-20T19:13:58.632Z,18.92
2019-03-20T19:16:29.948Z,18.89
2019-03-20T19:19:01.804Z,18.89
2019-03-20T19:21:33.627Z,18.92
2019-03-20T19:24:04.432Z,18.89
2019-03-20T19:26:36.488Z,18.88
2019-03-20T19:29:08.302Z,18.93
2019-03-20T19:31:39.773Z,18.99
2019-03-20T19:34:11.986Z,19.19
2019-03-20T19:36:43.766Z,19.27
2019-03-20T19:39:14.619Z,19.21
2019-03-20T19:41:46.719Z,19.15
2019-03-20T19:44:19.738Z,19.15
2019-03-20T19:46:51.757Z,19.22
2019-03-20T19:49:22.447Z,19.10
2019-03-20T19:51:54.017Z,18.92
2019-03-20T19:54:26.378Z,18.76
2019-03-20T19:56:58.044Z,18.65
2019-03-20T19:59:29.774Z,19.02
2019-03-20T20:02:00.468Z,19.25
2019-03-20T20:04:32.625Z,19.36
2019-03-20T20:07:04.329Z,19.43
2019-03-20T20:09:36.778Z,19.43
2019-03-20T20:12:07.499Z,19.41
2019-03-20T20:14:39.297Z,19.35
2019-03-20T20:17:10.755Z,19.34
2019-03-20T20:19:42.916Z,19.34
2019-03-20T20:22:14.421Z,19.24
2019-03-20T20:24:46.305Z,19.19
2019-03-20T20:27:17.913Z,19.16
2019-03-20T20:29:50.270Z,19.07
2019-03-20T20:32:22.065Z,18.99
2019-03-20T20:34:54.336Z,18.91
2019-03-20T20:37:29.344Z,18.83
2019-03-20T20:40:02.768Z,18.71
2019-03-20T20:42:42.468Z,18.63
2019-03-20T20:45:19.331Z,18.53
2019-03-20T20:47:50.873Z,18.49
2019-03-20T20:50:22.385Z,18.51
2019-03-20T20:52:54.070Z,18.47
2019-03-20T20:55:25.739Z,18.72
2019-03-20T20:57:56.456Z,18.90
2019-03-20T21:00:28.076Z,18.97
2019-03-20T21:02:59.796Z,18.97
2019-03-20T21:05:31.413Z,19.03
2019-03-20T21:08:03.136Z,18.96
2019-03-20T21:10:34.783Z,18.90
2019-03-20T21:13:07.734Z,18.93
2019-03-20T21:15:44.952Z,18.87
2019-03-20T21:19:21.820Z,18.78
2019-03-20T21:23:28.752Z,18.75
2019-03-20T21:26:01.638Z,18.74
2019-03-20T21:30:11.809Z,18.58
2019-03-20T21:32:45.795Z,18.58
2019-03-20T21:37:09.579Z,18.58
2019-03-20T21:39:42.309Z,18.49
2019-03-20T21:43:51.417Z,18.49
2019-03-20T21:47:35.300Z,18.56
2019-03-20T21:51:11.836Z,18.58
2019-03-20T21:54:59.508Z,18.49
2019-03-20T21:58:04.312Z,18.50
2019-03-20T22:02:12.334Z,18.45
2019-03-20T22:04:46.075Z,18.49
2019-03-20T22:07:19.094Z,18.42
2019-03-20T22:11:30.765Z,18.42
2019-03-20T22:14:09.770Z,18.43
2019-03-20T22:18:12.142Z,18.38
2019-03-20T22:21:41.681Z,18.40
2019-03-20T22:25:02.429Z,18.36
2019-03-20T22:29:01.437Z,18.34
2019-03-20T22:31:35.806Z,18.40
2019-03-20T22:34:39.782Z,18.33
2019-03-20T22:37:12.820Z,18.36
2019-03-20T22:41:13.276Z,18.34
2019-03-20T22:44:05.733Z,18.39
2019-03-20T22:48:16.888Z,18.33
2019-03-20T22:52:08.780Z,18.39
2019-03-20T22:55:33.276Z,18.35
2019-03-20T22:58:47.308Z,18.32
2019-03-20T23:01:44.861Z,18.35
2019-03-20T23:04:29.837Z,18.31
2019-03-20T23:07:02.767Z,18.33
2019-03-20T23:09:34.685Z,18.37
2019-03-20T23:12:13.785Z,18.31
2019-03-20T23:14:45.601Z,18.33
2019-03-20T23:17:19.094Z,18.34
2019-03-20T23:19:54.317Z,18.34
2019-03-20T23:22:27.005Z,18.36
2019-03-20T23:24:59.836Z,18.31
2019-03-20T23:27:34.344Z,18.29
2019-03-20T23:30:13.810Z,18.27
2019-03-20T23:32:47.338Z,18.30
2019-03-20T23:35:19.913Z,18.34
2019-03-20T23:37:52.880Z,18.27
2019-03-20T23:40:25.894Z,18.34
2019-03-20T23:42:59.317Z,18.32
2019-03-20T23:45:32.017Z,18.36
2019-03-20T23:48:25.328Z,18.32
2019-03-20T23:51:05.338Z,18.39
2019-03-20T23:53:39.830Z,18.38
2019-03-20T23:56:12.802Z,18.30
2019-03-20T23:58:44.694Z,18.31
